sensor_id;sensor_type;location;lat;lon;timestamp;temperature;humidity
4312;DHT22;2169;49.086;9.284;2023-07-29T00:01:57;19.40;75.40
4312;DHT22;2169;49.086;9.284;2023-07-29T00:04:25;19.40;75.50
4312;DHT22;2169;49.086;9.284;2023-07-29T00:06:52;19.40;75.50
4312;DHT22;2169;49.086;9.284;2023-07-29T00:09:19;19.40;75.50
4312;DHT22;2169;49.086;9.284;2023-07-29T00:11:46;19.40;75.60
4312;DHT22;2169;49.086;9.284;2023-07-29T00:14:13;19.40;75.60
4312;DHT22;2169;49.086;9.284;2023-07-29T00:16:40;19.40;75.60
4312;DHT22;2169;49.086;9.284;2023-07-29T00:19:08;19.40;75.60
4312;DHT22;2169;49.086;9.284;2023-07-29T00:21:36;19.40;75.60
4312;DHT22;2169;49.086;9.284;2023-07-29T00:24:03;19.40;75.70
4312;DHT22;2169;49.086;9.284;2023-07-29T00:26:30;19.40;75.80
4312;DHT22;2169;49.086;9.284;2023-07-29T00:28:57;19.40;75.90
4312;DHT22;2169;49.086;9.284;2023-07-29T00:31:24;19.40;76.00
4312;DHT22;2169;49.086;9.284;2023-07-29T00:33:51;19.40;76.20
4312;DHT22;2169;49.086;9.284;2023-07-29T00:36:18;19.40;76.20
4312;DHT22;2169;49.086;9.284;2023-07-29T00:38:47;19.40;76.30
4312;DHT22;2169;49.086;9.284;2023-07-29T00:41:14;19.40;76.30
4312;DHT22;2169;49.086;9.284;2023-07-29T00:43:42;19.40;76.30
4312;DHT22;2169;49.086;9.284;2023-07-29T00:46:09;19.40;76.40
4312;DHT22;2169;49.086;9.284;2023-07-29T00:48:38;19.40;76.40
4312;DHT22;2169;49.086;9.284;2023-07-29T00:51:05;19.40;76.50
4312;DHT22;2169;49.086;9.284;2023-07-29T00:53:32;19.40;77.20
4312;DHT22;2169;49.086;9.284;2023-07-29T00:56:01;19.40;76.60
4312;DHT22;2169;49.086;9.284;2023-07-29T00:58:27;19.40;76.60
4312;DHT22;2169;49.086;9.284;2023-07-29T01:00:55;19.40;76.70
4312;DHT22;2169;49.086;9.284;2023-07-29T01:03:22;19.40;76.70
4312;DHT22;2169;49.086;9.284;2023-07-29T01:05:59;19.40;76.70
4312;DHT22;2169;49.086;9.284;2023-07-29T01:08:31;19.40;77.40
4312;DHT22;2169;49.086;9.284;2023-07-29T01:11:11;19.40;76.70
4312;DHT22;2169;49.086;9.284;2023-07-29T01:13:44;19.40;76.80
4312;DHT22;2169;49.086;9.284;2023-07-29T01:16:19;19.40;76.80
4312;DHT22;2169;49.086;9.284;2023-07-29T01:18:48;19.40;76.80
4312;DHT22;2169;49.086;9.284;2023-07-29T01:21:17;19.30;76.80
4312;DHT22;2169;49.086;9.284;2023-07-29T01:23:46;19.30;76.90
4312;DHT22;2169;49.086;9.284;2023-07-29T01:26:13;19.40;77.00
4312;DHT22;2169;49.086;9.284;2023-07-29T01:28:39;19.30;77.00
4312;DHT22;2169;49.086;9.284;2023-07-29T01:31:11;19.30;77.10
4312;DHT22;2169;49.086;9.284;2023-07-29T01:33:42;19.40;77.20
4312;DHT22;2169;49.086;9.284;2023-07-29T01:36:15;19.30;77.20
4312;DHT22;2169;49.086;9.284;2023-07-29T01:38:48;19.30;77.20
4312;DHT22;2169;49.086;9.284;2023-07-29T01:41:16;19.40;77.40
4312;DHT22;2169;49.086;9.284;2023-07-29T01:43:45;19.40;77.40
4312;DHT22;2169;49.086;9.284;2023-07-29T01:46:13;19.30;77.20
4312;DHT22;2169;49.086;9.284;2023-07-29T01:48:41;19.40;77.40
4312;DHT22;2169;49.086;9.284;2023-07-29T01:51:11;19.40;77.40
4312;DHT22;2169;49.086;9.284;2023-07-29T01:53:40;19.30;77.30
4312;DHT22;2169;49.086;9.284;2023-07-29T01:56:09;19.40;77.40
4312;DHT22;2169;49.086;9.284;2023-07-29T01:58:36;19.40;77.50
4312;DHT22;2169;49.086;9.284;2023-07-29T02:01:03;19.30;77.40
4312;DHT22;2169;49.086;9.284;2023-07-29T02:03:30;19.30;77.40
4312;DHT22;2169;49.086;9.284;2023-07-29T02:05:57;19.40;77.60
4312;DHT22;2169;49.086;9.284;2023-07-29T02:08:24;19.40;77.60
4312;DHT22;2169;49.086;9.284;2023-07-29T02:10:50;19.40;77.70
4312;DHT22;2169;49.086;9.284;2023-07-29T02:13:19;19.40;77.70
4312;DHT22;2169;49.086;9.284;2023-07-29T02:15:46;19.40;77.60
4312;DHT22;2169;49.086;9.284;2023-07-29T02:18:13;19.40;77.70
4312;DHT22;2169;49.086;9.284;2023-07-29T02:20:40;19.40;77.60
4312;DHT22;2169;49.086;9.284;2023-07-29T02:23:11;19.40;77.60
4312;DHT22;2169;49.086;9.284;2023-07-29T02:25:38;19.30;77.50
4312;DHT22;2169;49.086;9.284;2023-07-29T02:28:05;19.30;77.60
4312;DHT22;2169;49.086;9.284;2023-07-29T02:30:33;19.40;77.70
4312;DHT22;2169;49.086;9.284;2023-07-29T02:33:00;19.40;77.70
4312;DHT22;2169;49.086;9.284;2023-07-29T02:35:27;19.30;77.60
4312;DHT22;2169;49.086;9.284;2023-07-29T02:37:54;19.30;77.70
4312;DHT22;2169;49.086;9.284;2023-07-29T02:40:21;19.40;77.80
4312;DHT22;2169;49.086;9.284;2023-07-29T02:42:48;19.40;77.80
4312;DHT22;2169;49.086;9.284;2023-07-29T02:45:15;19.40;77.80
4312;DHT22;2169;49.086;9.284;2023-07-29T02:47:43;19.40;77.80
4312;DHT22;2169;49.086;9.284;2023-07-29T02:50:10;19.40;77.80
4312;DHT22;2169;49.086;9.284;2023-07-29T02:52:38;19.40;77.80
4312;DHT22;2169;49.086;9.284;2023-07-29T02:55:06;19.40;77.80
4312;DHT22;2169;49.086;9.284;2023-07-29T02:57:33;19.40;77.80
4312;DHT22;2169;49.086;9.284;2023-07-29T03:00:01;19.40;77.80
4312;DHT22;2169;49.086;9.284;2023-07-29T03:02:28;19.40;77.80
4312;DHT22;2169;49.086;9.284;2023-07-29T03:04:57;19.40;77.80
4312;DHT22;2169;49.086;9.284;2023-07-29T03:07:24;19.40;77.80
4312;DHT22;2169;49.086;9.284;2023-07-29T03:09:51;19.40;77.80
4312;DHT22;2169;49.086;9.284;2023-07-29T03:12:18;19.40;77.80
4312;DHT22;2169;49.086;9.284;2023-07-29T03:14:47;19.40;77.80
4312;DHT22;2169;49.086;9.284;2023-07-29T03:17:14;19.40;77.80
4312;DHT22;2169;49.086;9.284;2023-07-29T03:19:41;19.40;77.70
4312;DHT22;2169;49.086;9.284;2023-07-29T03:22:09;19.40;77.60
4312;DHT22;2169;49.086;9.284;2023-07-29T03:24:36;19.40;77.60
4312;DHT22;2169;49.086;9.284;2023-07-29T03:27:05;19.40;77.60
4312;DHT22;2169;49.086;9.284;2023-07-29T03:29:32;19.30;77.50
4312;DHT22;2169;49.086;9.284;2023-07-29T03:31:59;19.30;77.50
4312;DHT22;2169;49.086;9.284;2023-07-29T03:34:28;19.40;77.60
4312;DHT22;2169;49.086;9.284;2023-07-29T03:36:54;19.30;77.50
4312;DHT22;2169;49.086;9.284;2023-07-29T03:39:23;19.30;77.60
4312;DHT22;2169;49.086;9.284;2023-07-29T03:41:50;19.30;77.50
4312;DHT22;2169;49.086;9.284;2023-07-29T03:44:17;19.40;77.60
4312;DHT22;2169;49.086;9.284;2023-07-29T03:46:45;19.40;77.70
4312;DHT22;2169;49.086;9.284;2023-07-29T03:49:12;19.40;78.30
4312;DHT22;2169;49.086;9.284;2023-07-29T03:51:39;19.40;77.70
4312;DHT22;2169;49.086;9.284;2023-07-29T03:54:06;19.40;77.70
4312;DHT22;2169;49.086;9.284;2023-07-29T03:56:34;19.40;77.70
4312;DHT22;2169;49.086;9.284;2023-07-29T03:59:02;19.40;77.70
4312;DHT22;2169;49.086;9.284;2023-07-29T04:01:30;19.40;77.70
4312;DHT22;2169;49.086;9.284;2023-07-29T04:03:58;19.40;77.70
4312;DHT22;2169;49.086;9.284;2023-07-29T04:06:25;19.30;77.60
4312;DHT22;2169;49.086;9.284;2023-07-29T04:08:52;19.30;78.30
4312;DHT22;2169;49.086;9.284;2023-07-29T04:11:19;19.30;77.70
4312;DHT22;2169;49.086;9.284;2023-07-29T04:13:47;19.30;77.70
4312;DHT22;2169;49.086;9.284;2023-07-29T04:16:14;19.30;77.80
4312;DHT22;2169;49.086;9.284;2023-07-29T04:18:42;19.30;77.80
4312;DHT22;2169;49.086;9.284;2023-07-29T04:21:10;19.30;77.80
4312;DHT22;2169;49.086;9.284;2023-07-29T04:23:37;19.30;77.80
4312;DHT22;2169;49.086;9.284;2023-07-29T04:26:06;19.30;77.80
4312;DHT22;2169;49.086;9.284;2023-07-29T04:28:33;19.20;77.70
4312;DHT22;2169;49.086;9.284;2023-07-29T04:31:02;19.20;77.70
4312;DHT22;2169;49.086;9.284;2023-07-29T04:33:30;19.30;77.80
4312;DHT22;2169;49.086;9.284;2023-07-29T04:35:56;19.30;77.80
4312;DHT22;2169;49.086;9.284;2023-07-29T04:38:31;19.30;77.80
4312;DHT22;2169;49.086;9.284;2023-07-29T04:40:58;19.30;77.80
4312;DHT22;2169;49.086;9.284;2023-07-29T04:43:27;19.30;77.70
4312;DHT22;2169;49.086;9.284;2023-07-29T04:45:53;19.30;77.80
4312;DHT22;2169;49.086;9.284;2023-07-29T04:48:22;19.30;77.70
4312;DHT22;2169;49.086;9.284;2023-07-29T04:50:49;19.30;77.70
4312;DHT22;2169;49.086;9.284;2023-07-29T04:53:16;19.30;77.90
4312;DHT22;2169;49.086;9.284;2023-07-29T04:55:43;19.30;77.80
4312;DHT22;2169;49.086;9.284;2023-07-29T04:58:10;19.30;77.90
4312;DHT22;2169;49.086;9.284;2023-07-29T05:00:41;19.40;78.10
4312;DHT22;2169;49.086;9.284;2023-07-29T05:03:08;19.30;78.00
4312;DHT22;2169;49.086;9.284;2023-07-29T05:05:38;19.30;78.80
4312;DHT22;2169;49.086;9.284;2023-07-29T05:08:07;19.20;78.10
4312;DHT22;2169;49.086;9.284;2023-07-29T05:10:34;19.20;78.30
4312;DHT22;2169;49.086;9.284;2023-07-29T05:13:01;19.20;78.40
4312;DHT22;2169;49.086;9.284;2023-07-29T05:15:28;19.20;78.40
4312;DHT22;2169;49.086;9.284;2023-07-29T05:17:55;19.20;78.50
4312;DHT22;2169;49.086;9.284;2023-07-29T05:20:23;19.20;78.60
4312;DHT22;2169;49.086;9.284;2023-07-29T05:22:51;19.20;78.70
4312;DHT22;2169;49.086;9.284;2023-07-29T05:25:18;19.20;78.70
4312;DHT22;2169;49.086;9.284;2023-07-29T05:27:45;19.20;78.80
4312;DHT22;2169;49.086;9.284;2023-07-29T05:30:12;19.20;78.80
4312;DHT22;2169;49.086;9.284;2023-07-29T05:32:39;19.20;78.90
4312;DHT22;2169;49.086;9.284;2023-07-29T05:35:06;19.30;79.00
4312;DHT22;2169;49.086;9.284;2023-07-29T05:37:34;19.20;78.90
4312;DHT22;2169;49.086;9.284;2023-07-29T05:40:02;19.30;79.00
4312;DHT22;2169;49.086;9.284;2023-07-29T05:42:30;19.30;79.10
4312;DHT22;2169;49.086;9.284;2023-07-29T05:44:56;19.30;79.10
4312;DHT22;2169;49.086;9.284;2023-07-29T05:47:23;19.30;79.20
4312;DHT22;2169;49.086;9.284;2023-07-29T05:49:50;19.30;79.20
4312;DHT22;2169;49.086;9.284;2023-07-29T05:52:18;19.40;79.40
4312;DHT22;2169;49.086;9.284;2023-07-29T05:54:45;19.40;79.40
4312;DHT22;2169;49.086;9.284;2023-07-29T05:57:13;19.40;79.40
4312;DHT22;2169;49.086;9.284;2023-07-29T05:59:40;19.40;79.50
4312;DHT22;2169;49.086;9.284;2023-07-29T06:02:07;19.40;79.50
4312;DHT22;2169;49.086;9.284;2023-07-29T06:04:34;19.40;79.60
4312;DHT22;2169;49.086;9.284;2023-07-29T06:07:01;19.40;79.70
4312;DHT22;2169;49.086;9.284;2023-07-29T06:09:28;19.40;79.80
4312;DHT22;2169;49.086;9.284;2023-07-29T06:11:55;19.40;79.90
4312;DHT22;2169;49.086;9.284;2023-07-29T06:14:23;19.40;80.00
4312;DHT22;2169;49.086;9.284;2023-07-29T06:16:50;19.50;80.20
4312;DHT22;2169;49.086;9.284;2023-07-29T06:19:18;19.50;80.20
4312;DHT22;2169;49.086;9.284;2023-07-29T06:21:45;19.50;80.20
4312;DHT22;2169;49.086;9.284;2023-07-29T06:24:11;19.60;80.40
4312;DHT22;2169;49.086;9.284;2023-07-29T06:26:38;19.60;80.40
4312;DHT22;2169;49.086;9.284;2023-07-29T06:29:05;19.60;80.50
4312;DHT22;2169;49.086;9.284;2023-07-29T06:31:33;19.60;80.50
4312;DHT22;2169;49.086;9.284;2023-07-29T06:34:00;19.60;80.60
4312;DHT22;2169;49.086;9.284;2023-07-29T06:36:28;19.70;80.70
4312;DHT22;2169;49.086;9.284;2023-07-29T06:38:54;19.70;80.70
4312;DHT22;2169;49.086;9.284;2023-07-29T06:41:25;19.70;80.80
4312;DHT22;2169;49.086;9.284;2023-07-29T06:43:52;19.70;80.80
4312;DHT22;2169;49.086;9.284;2023-07-29T06:46:19;19.70;80.80
4312;DHT22;2169;49.086;9.284;2023-07-29T06:48:47;19.80;81.00
4312;DHT22;2169;49.086;9.284;2023-07-29T06:51:14;19.80;80.90
4312;DHT22;2169;49.086;9.284;2023-07-29T06:53:41;19.80;80.90
4312;DHT22;2169;49.086;9.284;2023-07-29T06:56:08;19.90;81.10
4312;DHT22;2169;49.086;9.284;2023-07-29T06:58:35;19.90;81.00
4312;DHT22;2169;49.086;9.284;2023-07-29T07:01:02;19.90;81.10
4312;DHT22;2169;49.086;9.284;2023-07-29T07:03:29;20.00;81.10
4312;DHT22;2169;49.086;9.284;2023-07-29T07:05:58;20.00;81.10
4312;DHT22;2169;49.086;9.284;2023-07-29T07:08:26;20.00;81.20
4312;DHT22;2169;49.086;9.284;2023-07-29T07:10:56;20.00;81.20
4312;DHT22;2169;49.086;9.284;2023-07-29T07:13:23;20.00;81.20
4312;DHT22;2169;49.086;9.284;2023-07-29T07:15:50;20.10;81.20
4312;DHT22;2169;49.086;9.284;2023-07-29T07:18:20;20.10;81.20
4312;DHT22;2169;49.086;9.284;2023-07-29T07:20:48;20.10;81.20
4312;DHT22;2169;49.086;9.284;2023-07-29T07:23:17;20.10;81.20
4312;DHT22;2169;49.086;9.284;2023-07-29T07:25:44;20.20;81.30
4312;DHT22;2169;49.086;9.284;2023-07-29T07:28:11;20.20;81.20
4312;DHT22;2169;49.086;9.284;2023-07-29T07:30:39;20.20;81.20
4312;DHT22;2169;49.086;9.284;2023-07-29T07:33:07;20.20;81.20
4312;DHT22;2169;49.086;9.284;2023-07-29T07:35:33;20.20;81.20
4312;DHT22;2169;49.086;9.284;2023-07-29T07:38:00;20.20;81.10
4312;DHT22;2169;49.086;9.284;2023-07-29T07:40:31;20.20;81.20
4312;DHT22;2169;49.086;9.284;2023-07-29T07:42:58;20.30;82.00
4312;DHT22;2169;49.086;9.284;2023-07-29T07:45:25;20.20;81.10
4312;DHT22;2169;49.086;9.284;2023-07-29T07:47:53;20.30;81.90
4312;DHT22;2169;49.086;9.284;2023-07-29T07:50:20;20.30;81.30
4312;DHT22;2169;49.086;9.284;2023-07-29T07:52:49;20.30;81.30
4312;DHT22;2169;49.086;9.284;2023-07-29T07:55:16;20.30;81.30
4312;DHT22;2169;49.086;9.284;2023-07-29T07:57:45;20.30;81.40
4312;DHT22;2169;49.086;9.284;2023-07-29T08:00:13;20.30;81.40
4312;DHT22;2169;49.086;9.284;2023-07-29T08:02:41;20.40;81.50
4312;DHT22;2169;49.086;9.284;2023-07-29T08:05:08;20.40;81.50
4312;DHT22;2169;49.086;9.284;2023-07-29T08:07:35;20.40;81.50
4312;DHT22;2169;49.086;9.284;2023-07-29T08:10:07;20.50;81.60
4312;DHT22;2169;49.086;9.284;2023-07-29T08:12:34;20.50;81.70
4312;DHT22;2169;49.086;9.284;2023-07-29T08:15:03;20.50;81.70
4312;DHT22;2169;49.086;9.284;2023-07-29T08:17:30;20.50;81.70
4312;DHT22;2169;49.086;9.284;2023-07-29T08:19:57;20.60;81.80
4312;DHT22;2169;49.086;9.284;2023-07-29T08:22:24;20.70;81.90
4312;DHT22;2169;49.086;9.284;2023-07-29T08:24:51;20.70;82.10
4312;DHT22;2169;49.086;9.284;2023-07-29T08:27:19;20.80;82.30
4312;DHT22;2169;49.086;9.284;2023-07-29T08:29:46;20.80;82.60
4312;DHT22;2169;49.086;9.284;2023-07-29T08:32:15;20.90;82.90
4312;DHT22;2169;49.086;9.284;2023-07-29T08:34:42;21.00;83.10
4312;DHT22;2169;49.086;9.284;2023-07-29T08:37:09;21.10;83.30
4312;DHT22;2169;49.086;9.284;2023-07-29T08:39:36;21.20;83.40
4312;DHT22;2169;49.086;9.284;2023-07-29T08:42:04;21.30;83.30
4312;DHT22;2169;49.086;9.284;2023-07-29T08:44:35;21.30;83.10
4312;DHT22;2169;49.086;9.284;2023-07-29T08:47:06;21.40;83.10
4312;DHT22;2169;49.086;9.284;2023-07-29T08:49:35;21.40;83.00
4312;DHT22;2169;49.086;9.284;2023-07-29T08:52:04;21.50;83.00
4312;DHT22;2169;49.086;9.284;2023-07-29T08:54:31;21.50;82.80
4312;DHT22;2169;49.086;9.284;2023-07-29T08:57:00;21.60;82.80
4312;DHT22;2169;49.086;9.284;2023-07-29T08:59:28;21.60;82.70
4312;DHT22;2169;49.086;9.284;2023-07-29T09:01:56;21.70;82.60
4312;DHT22;2169;49.086;9.284;2023-07-29T09:04:24;21.70;82.30
4312;DHT22;2169;49.086;9.284;2023-07-29T09:06:54;21.80;82.20
4312;DHT22;2169;49.086;9.284;2023-07-29T09:09:22;21.80;82.00
4312;DHT22;2169;49.086;9.284;2023-07-29T09:11:58;21.80;81.80
4312;DHT22;2169;49.086;9.284;2023-07-29T09:14:24;21.90;81.50
4312;DHT22;2169;49.086;9.284;2023-07-29T09:16:51;21.90;81.40
4312;DHT22;2169;49.086;9.284;2023-07-29T09:19:18;21.90;81.30
4312;DHT22;2169;49.086;9.284;2023-07-29T09:21:46;22.00;81.30
4312;DHT22;2169;49.086;9.284;2023-07-29T09:24:15;22.00;81.20
4312;DHT22;2169;49.086;9.284;2023-07-29T09:26:50;22.10;81.20
4312;DHT22;2169;49.086;9.284;2023-07-29T09:29:22;22.20;81.30
4312;DHT22;2169;49.086;9.284;2023-07-29T09:31:49;22.20;81.30
4312;DHT22;2169;49.086;9.284;2023-07-29T09:34:17;22.20;81.10
4312;DHT22;2169;49.086;9.284;2023-07-29T09:36:44;22.30;81.10
4312;DHT22;2169;49.086;9.284;2023-07-29T09:39:13;22.30;80.80
4312;DHT22;2169;49.086;9.284;2023-07-29T09:41:40;22.30;80.30
4312;DHT22;2169;49.086;9.284;2023-07-29T09:44:07;22.30;79.90
4312;DHT22;2169;49.086;9.284;2023-07-29T09:46:46;22.30;79.50
4312;DHT22;2169;49.086;9.284;2023-07-29T09:49:13;22.30;79.30
4312;DHT22;2169;49.086;9.284;2023-07-29T09:51:40;22.30;79.30
4312;DHT22;2169;49.086;9.284;2023-07-29T09:54:10;22.20;79.00
4312;DHT22;2169;49.086;9.284;2023-07-29T09:56:41;22.20;78.80
4312;DHT22;2169;49.086;9.284;2023-07-29T09:59:10;22.10;79.20
4312;DHT22;2169;49.086;9.284;2023-07-29T10:01:38;22.10;78.40
4312;DHT22;2169;49.086;9.284;2023-07-29T10:04:05;22.10;78.10
4312;DHT22;2169;49.086;9.284;2023-07-29T10:06:34;22.00;78.00
4312;DHT22;2169;49.086;9.284;2023-07-29T10:09:01;22.00;77.90
4312;DHT22;2169;49.086;9.284;2023-07-29T10:11:28;21.90;77.80
4312;DHT22;2169;49.086;9.284;2023-07-29T10:13:57;21.90;77.80
4312;DHT22;2169;49.086;9.284;2023-07-29T10:16:27;21.80;77.90
4312;DHT22;2169;49.086;9.284;2023-07-29T10:18:54;21.80;78.00
4312;DHT22;2169;49.086;9.284;2023-07-29T10:21:22;21.80;78.20
4312;DHT22;2169;49.086;9.284;2023-07-29T10:23:53;21.70;78.30
4312;DHT22;2169;49.086;9.284;2023-07-29T10:26:22;21.70;78.40
4312;DHT22;2169;49.086;9.284;2023-07-29T10:28:51;21.80;78.70
4312;DHT22;2169;49.086;9.284;2023-07-29T10:31:22;21.80;78.90
4312;DHT22;2169;49.086;9.284;2023-07-29T10:33:50;21.80;79.10
4312;DHT22;2169;49.086;9.284;2023-07-29T10:36:17;21.90;79.40
4312;DHT22;2169;49.086;9.284;2023-07-29T10:38:45;22.00;79.60
4312;DHT22;2169;49.086;9.284;2023-07-29T10:41:12;22.10;79.80
4312;DHT22;2169;49.086;9.284;2023-07-29T10:43:39;22.20;79.80
4312;DHT22;2169;49.086;9.284;2023-07-29T10:46:16;22.30;79.80
4312;DHT22;2169;49.086;9.284;2023-07-29T10:48:53;22.30;79.60
4312;DHT22;2169;49.086;9.284;2023-07-29T10:51:27;22.40;79.40
4312;DHT22;2169;49.086;9.284;2023-07-29T10:53:57;22.50;79.50
4312;DHT22;2169;49.086;9.284;2023-07-29T10:56:29;22.60;79.30
4312;DHT22;2169;49.086;9.284;2023-07-29T10:58:57;22.60;78.80
4312;DHT22;2169;49.086;9.284;2023-07-29T11:01:28;22.70;78.90
4312;DHT22;2169;49.086;9.284;2023-07-29T11:04:22;22.80;78.90
4312;DHT22;2169;49.086;9.284;2023-07-29T11:07:19;22.90;78.60
4312;DHT22;2169;49.086;9.284;2023-07-29T11:10:06;23.00;78.70
4312;DHT22;2169;49.086;9.284;2023-07-29T11:12:38;23.00;78.40
4312;DHT22;2169;49.086;9.284;2023-07-29T11:15:15;23.10;78.20
4312;DHT22;2169;49.086;9.284;2023-07-29T11:17:44;23.20;77.40
4312;DHT22;2169;49.086;9.284;2023-07-29T11:20:14;23.20;77.60
4312;DHT22;2169;49.086;9.284;2023-07-29T11:22:42;23.30;77.20
4312;DHT22;2169;49.086;9.284;2023-07-29T11:25:10;23.30;77.20
4312;DHT22;2169;49.086;9.284;2023-07-29T11:27:39;23.40;76.90
4312;DHT22;2169;49.086;9.284;2023-07-29T11:30:08;23.50;76.90
4312;DHT22;2169;49.086;9.284;2023-07-29T11:32:36;23.50;76.20
4312;DHT22;2169;49.086;9.284;2023-07-29T11:35:05;23.60;75.80
4312;DHT22;2169;49.086;9.284;2023-07-29T11:37:42;23.70;75.00
4312;DHT22;2169;49.086;9.284;2023-07-29T11:40:09;23.80;74.40
4312;DHT22;2169;49.086;9.284;2023-07-29T11:42:37;23.80;73.80
4312;DHT22;2169;49.086;9.284;2023-07-29T11:45:08;23.90;73.30
4312;DHT22;2169;49.086;9.284;2023-07-29T11:47:36;23.90;73.20
4312;DHT22;2169;49.086;9.284;2023-07-29T11:50:04;24.00;73.10
4312;DHT22;2169;49.086;9.284;2023-07-29T11:52:40;24.10;71.80
4312;DHT22;2169;49.086;9.284;2023-07-29T11:55:08;24.20;71.10
4312;DHT22;2169;49.086;9.284;2023-07-29T11:57:39;24.20;70.20
4312;DHT22;2169;49.086;9.284;2023-07-29T12:00:12;24.30;69.80
4312;DHT22;2169;49.086;9.284;2023-07-29T12:02:41;24.40;69.40
4312;DHT22;2169;49.086;9.284;2023-07-29T12:05:10;24.40;69.10
4312;DHT22;2169;49.086;9.284;2023-07-29T12:07:46;24.50;68.70
4312;DHT22;2169;49.086;9.284;2023-07-29T12:10:14;24.60;68.10
4312;DHT22;2169;49.086;9.284;2023-07-29T12:12:48;24.70;67.30
4312;DHT22;2169;49.086;9.284;2023-07-29T12:15:23;24.70;67.10
4312;DHT22;2169;49.086;9.284;2023-07-29T12:17:54;24.80;66.60
4312;DHT22;2169;49.086;9.284;2023-07-29T12:20:23;24.80;65.90
4312;DHT22;2169;49.086;9.284;2023-07-29T12:23:10;24.80;65.60
4312;DHT22;2169;49.086;9.284;2023-07-29T12:25:38;24.90;65.30
4312;DHT22;2169;49.086;9.284;2023-07-29T12:28:22;25.00;65.00
4312;DHT22;2169;49.086;9.284;2023-07-29T12:30:55;25.00;64.80
4312;DHT22;2169;49.086;9.284;2023-07-29T12:33:37;25.20;65.10
4312;DHT22;2169;49.086;9.284;2023-07-29T12:36:08;25.20;64.60
4312;DHT22;2169;49.086;9.284;2023-07-29T12:41:17;25.40;64.20
4312;DHT22;2169;49.086;9.284;2023-07-29T12:43:45;25.40;64.10
4312;DHT22;2169;49.086;9.284;2023-07-29T12:46:11;25.40;63.50
4312;DHT22;2169;49.086;9.284;2023-07-29T12:48:38;25.50;63.00
4312;DHT22;2169;49.086;9.284;2023-07-29T12:51:05;25.50;62.90
4312;DHT22;2169;49.086;9.284;2023-07-29T12:53:31;25.50;62.70
4312;DHT22;2169;49.086;9.284;2023-07-29T12:55:58;25.50;62.80
4312;DHT22;2169;49.086;9.284;2023-07-29T12:58:27;25.50;62.80
4312;DHT22;2169;49.086;9.284;2023-07-29T13:00:54;25.60;62.40
4312;DHT22;2169;49.086;9.284;2023-07-29T13:03:21;25.70;61.70
4312;DHT22;2169;49.086;9.284;2023-07-29T13:05:48;25.70;61.80
4312;DHT22;2169;49.086;9.284;2023-07-29T13:08:14;25.80;61.50
4312;DHT22;2169;49.086;9.284;2023-07-29T13:10:41;25.80;61.00
4312;DHT22;2169;49.086;9.284;2023-07-29T13:13:08;25.90;60.90
4312;DHT22;2169;49.086;9.284;2023-07-29T13:15:36;25.90;60.00
4312;DHT22;2169;49.086;9.284;2023-07-29T13:18:02;25.90;59.90
4312;DHT22;2169;49.086;9.284;2023-07-29T13:20:29;25.90;59.70
4312;DHT22;2169;49.086;9.284;2023-07-29T13:22:56;26.00;59.30
4312;DHT22;2169;49.086;9.284;2023-07-29T13:25:23;26.00;58.70
4312;DHT22;2169;49.086;9.284;2023-07-29T13:27:49;26.00;58.80
4312;DHT22;2169;49.086;9.284;2023-07-29T13:30:16;26.10;58.60
4312;DHT22;2169;49.086;9.284;2023-07-29T13:32:44;26.20;58.70
4312;DHT22;2169;49.086;9.284;2023-07-29T13:35:11;26.20;58.60
4312;DHT22;2169;49.086;9.284;2023-07-29T13:37:37;26.20;58.50
4312;DHT22;2169;49.086;9.284;2023-07-29T13:40:06;26.30;58.60
4312;DHT22;2169;49.086;9.284;2023-07-29T13:42:33;26.30;58.10
4312;DHT22;2169;49.086;9.284;2023-07-29T13:45:00;26.40;58.00
4312;DHT22;2169;49.086;9.284;2023-07-29T13:47:26;26.40;58.10
4312;DHT22;2169;49.086;9.284;2023-07-29T13:49:54;26.40;57.80
4312;DHT22;2169;49.086;9.284;2023-07-29T13:52:21;26.40;57.60
4312;DHT22;2169;49.086;9.284;2023-07-29T13:54:48;26.50;57.70
4312;DHT22;2169;49.086;9.284;2023-07-29T13:57:15;26.50;57.10
4312;DHT22;2169;49.086;9.284;2023-07-29T13:59:41;26.60;57.80
4312;DHT22;2169;49.086;9.284;2023-07-29T14:02:08;26.60;56.90
4312;DHT22;2169;49.086;9.284;2023-07-29T14:04:35;26.60;56.70
4312;DHT22;2169;49.086;9.284;2023-07-29T14:07:03;26.60;56.60
4312;DHT22;2169;49.086;9.284;2023-07-29T14:09:30;26.60;56.60
4312;DHT22;2169;49.086;9.284;2023-07-29T14:11:57;26.60;56.50
4312;DHT22;2169;49.086;9.284;2023-07-29T14:14:24;26.60;55.90
4312;DHT22;2169;49.086;9.284;2023-07-29T14:16:50;26.60;55.80
4312;DHT22;2169;49.086;9.284;2023-07-29T14:19:18;26.60;55.90
4312;DHT22;2169;49.086;9.284;2023-07-29T14:21:44;26.70;56.20
4312;DHT22;2169;49.086;9.284;2023-07-29T14:24:12;26.70;56.30
4312;DHT22;2169;49.086;9.284;2023-07-29T14:26:40;26.80;56.40
4312;DHT22;2169;49.086;9.284;2023-07-29T14:29:07;26.80;56.30
4312;DHT22;2169;49.086;9.284;2023-07-29T14:31:34;26.90;56.20
4312;DHT22;2169;49.086;9.284;2023-07-29T14:34:00;26.90;56.30
4312;DHT22;2169;49.086;9.284;2023-07-29T14:36:27;26.90;56.30
4312;DHT22;2169;49.086;9.284;2023-07-29T14:38:54;26.90;56.10
4312;DHT22;2169;49.086;9.284;2023-07-29T14:41:22;26.90;55.90
4312;DHT22;2169;49.086;9.284;2023-07-29T14:43:49;26.80;56.00
4312;DHT22;2169;49.086;9.284;2023-07-29T14:46:15;26.90;55.90
4312;DHT22;2169;49.086;9.284;2023-07-29T14:48:42;26.90;55.70
4312;DHT22;2169;49.086;9.284;2023-07-29T14:51:09;26.90;55.10
4312;DHT22;2169;49.086;9.284;2023-07-29T14:53:35;27.00;54.60
4312;DHT22;2169;49.086;9.284;2023-07-29T14:56:02;27.00;54.40
4312;DHT22;2169;49.086;9.284;2023-07-29T14:58:30;27.10;54.50
4312;DHT22;2169;49.086;9.284;2023-07-29T15:00:57;27.10;54.20
4312;DHT22;2169;49.086;9.284;2023-07-29T15:03:24;27.20;53.80
4312;DHT22;2169;49.086;9.284;2023-07-29T15:05:51;27.20;53.70
4312;DHT22;2169;49.086;9.284;2023-07-29T15:08:18;27.20;53.60
4312;DHT22;2169;49.086;9.284;2023-07-29T15:10:45;27.30;53.60
4312;DHT22;2169;49.086;9.284;2023-07-29T15:13:12;27.30;53.60
4312;DHT22;2169;49.086;9.284;2023-07-29T15:15:42;27.40;53.50
4312;DHT22;2169;49.086;9.284;2023-07-29T15:18:09;27.50;53.30
4312;DHT22;2169;49.086;9.284;2023-07-29T15:20:36;27.60;53.10
4312;DHT22;2169;49.086;9.284;2023-07-29T15:23:02;27.60;52.50
4312;DHT22;2169;49.086;9.284;2023-07-29T15:25:29;27.60;52.40
4312;DHT22;2169;49.086;9.284;2023-07-29T15:27:56;27.60;52.00
4312;DHT22;2169;49.086;9.284;2023-07-29T15:30:23;27.70;51.90
4312;DHT22;2169;49.086;9.284;2023-07-29T15:32:52;27.70;51.70
4312;DHT22;2169;49.086;9.284;2023-07-29T15:35:22;27.70;51.60
4312;DHT22;2169;49.086;9.284;2023-07-29T15:37:48;27.80;51.40
4312;DHT22;2169;49.086;9.284;2023-07-29T15:40:15;27.80;51.20
4312;DHT22;2169;49.086;9.284;2023-07-29T15:42:42;27.80;51.00
4312;DHT22;2169;49.086;9.284;2023-07-29T15:45:10;27.80;50.70
4312;DHT22;2169;49.086;9.284;2023-07-29T15:47:37;27.80;50.60
4312;DHT22;2169;49.086;9.284;2023-07-29T15:50:06;27.80;50.50
4312;DHT22;2169;49.086;9.284;2023-07-29T15:52:33;27.80;50.40
4312;DHT22;2169;49.086;9.284;2023-07-29T15:55:00;27.80;50.10
4312;DHT22;2169;49.086;9.284;2023-07-29T15:57:26;27.70;49.90
4312;DHT22;2169;49.086;9.284;2023-07-29T15:59:53;27.80;49.90
4312;DHT22;2169;49.086;9.284;2023-07-29T16:02:20;27.70;49.90
4312;DHT22;2169;49.086;9.284;2023-07-29T16:04:46;27.80;49.70
4312;DHT22;2169;49.086;9.284;2023-07-29T16:07:14;27.80;49.60
4312;DHT22;2169;49.086;9.284;2023-07-29T16:09:41;27.80;49.70
4312;DHT22;2169;49.086;9.284;2023-07-29T16:12:08;27.80;49.80